sensor_id;sensor_type;location;lat;lon;timestamp;temperature;humidity
21271;DHT22;10795;50.796;3.860;2023-01-25T00:01:32;4.10;99.90
21271;DHT22;10795;50.796;3.860;2023-01-25T00:03:58;3.60;99.90
21271;DHT22;10795;50.796;3.860;2023-01-25T00:06:24;3.50;99.90
21271;DHT22;10795;50.796;3.860;2023-01-25T00:08:50;3.10;99.90
21271;DHT22;10795;50.796;3.860;2023-01-25T00:11:16;3.40;99.90
21271;DHT22;10795;50.796;3.860;2023-01-25T00:13:42;3.50;99.90
21271;DHT22;10795;50.796;3.860;2023-01-25T00:16:08;2.90;99.90
21271;DHT22;10795;50.796;3.860;2023-01-25T00:18:34;2.70;99.90
21271;DHT22;10795;50.796;3.860;2023-01-25T00:21:14;2.80;99.90
21271;DHT22;10795;50.796;3.860;2023-01-25T00:23:40;3.40;99.90
21271;DHT22;10795;50.796;3.860;2023-01-25T00:26:06;4.10;99.90
21271;DHT22;10795;50.796;3.860;2023-01-25T00:28:32;4.40;99.90
21271;DHT22;10795;50.796;3.860;2023-01-25T00:31:01;4.00;99.90
21271;DHT22;10795;50.796;3.860;2023-01-25T00:38:47;3.70;99.90
21271;DHT22;10795;50.796;3.860;2023-01-25T00:41:13;4.10;99.90
21271;DHT22;10795;50.796;3.860;2023-01-25T00:43:39;4.30;99.90
21271;DHT22;10795;50.796;3.860;2023-01-25T00:46:05;4.10;99.90
21271;DHT22;10795;50.796;3.860;2023-01-25T00:48:31;4.30;99.90
21271;DHT22;10795;50.796;3.860;2023-01-25T00:51:00;4.50;99.90
21271;DHT22;10795;50.796;3.860;2023-01-25T00:53:26;4.30;99.90
21271;DHT22;10795;50.796;3.860;2023-01-25T00:55:52;4.30;99.90
21271;DHT22;10795;50.796;3.860;2023-01-25T00:58:18;4.00;99.90
21271;DHT22;10795;50.796;3.860;2023-01-25T01:00:44;3.90;99.90
21271;DHT22;10795;50.796;3.860;2023-01-25T01:03:10;3.60;99.90
21271;DHT22;10795;50.796;3.860;2023-01-25T01:05:36;4.20;99.90
21271;DHT22;10795;50.796;3.860;2023-01-25T01:08:02;4.00;99.90
21271;DHT22;10795;50.796;3.860;2023-01-25T01:10:28;4.20;99.90
21271;DHT22;10795;50.796;3.860;2023-01-25T01:12:54;4.50;99.90
21271;DHT22;10795;50.796;3.860;2023-01-25T01:15:20;4.50;99.90
21271;DHT22;10795;50.796;3.860;2023-01-25T01:17:46;4.50;99.90
21271;DHT22;10795;50.796;3.860;2023-01-25T01:20:12;4.60;99.90
21271;DHT22;10795;50.796;3.860;2023-01-25T01:22:38;4.70;99.90
21271;DHT22;10795;50.796;3.860;2023-01-25T01:25:04;4.50;99.90
21271;DHT22;10795;50.796;3.860;2023-01-25T01:27:30;4.30;99.90
21271;DHT22;10795;50.796;3.860;2023-01-25T01:29:56;4.00;99.90
21271;DHT22;10795;50.796;3.860;2023-01-25T01:32:22;3.80;99.90
21271;DHT22;10795;50.796;3.860;2023-01-25T01:34:49;3.80;99.90
21271;DHT22;10795;50.796;3.860;2023-01-25T01:37:15;4.10;99.90
21271;DHT22;10795;50.796;3.860;2023-01-25T01:39:41;4.10;99.90
21271;DHT22;10795;50.796;3.860;2023-01-25T01:42:07;3.90;99.90
21271;DHT22;10795;50.796;3.860;2023-01-25T01:45:00;4.10;99.90
21271;DHT22;10795;50.796;3.860;2023-01-25T01:47:29;4.00;99.90
21271;DHT22;10795;50.796;3.860;2023-01-25T01:50:13;3.90;99.90
21271;DHT22;10795;50.796;3.860;2023-01-25T01:52:42;4.00;99.90
21271;DHT22;10795;50.796;3.860;2023-01-25T01:55:16;3.80;99.90
21271;DHT22;10795;50.796;3.860;2023-01-25T01:57:47;3.60;99.90
21271;DHT22;10795;50.796;3.860;2023-01-25T02:00:24;4.00;99.90
21271;DHT22;10795;50.796;3.860;2023-01-25T02:02:51;4.20;99.90
21271;DHT22;10795;50.796;3.860;2023-01-25T02:05:31;4.40;99.90
21271;DHT22;10795;50.796;3.860;2023-01-25T02:08:03;3.80;99.90
21271;DHT22;10795;50.796;3.860;2023-01-25T02:10:31;3.70;99.90
21271;DHT22;10795;50.796;3.860;2023-01-25T02:12:57;3.20;99.90
21271;DHT22;10795;50.796;3.860;2023-01-25T02:15:27;3.70;99.90
21271;DHT22;10795;50.796;3.860;2023-01-25T02:17:54;4.10;99.90
21271;DHT22;10795;50.796;3.860;2023-01-25T02:20:28;4.10;99.90
21271;DHT22;10795;50.796;3.860;2023-01-25T02:25:44;3.60;99.90
21271;DHT22;10795;50.796;3.860;2023-01-25T02:30:43;3.40;99.90
21271;DHT22;10795;50.796;3.860;2023-01-25T02:33:09;3.60;99.90
21271;DHT22;10795;50.796;3.860;2023-01-25T02:35:37;4.10;99.90
21271;DHT22;10795;50.796;3.860;2023-01-25T02:38:05;4.20;99.90
21271;DHT22;10795;50.796;3.860;2023-01-25T02:40:37;4.40;99.90
21271;DHT22;10795;50.796;3.860;2023-01-25T02:43:06;4.60;99.90
21271;DHT22;10795;50.796;3.860;2023-01-25T02:45:33;4.50;99.90
21271;DHT22;10795;50.796;3.860;2023-01-25T02:47:58;4.40;99.90
21271;DHT22;10795;50.796;3.860;2023-01-25T02:50:24;4.20;99.90
21271;DHT22;10795;50.796;3.860;2023-01-25T02:52:50;4.20;99.90
21271;DHT22;10795;50.796;3.860;2023-01-25T02:55:16;4.40;99.90
21271;DHT22;10795;50.796;3.860;2023-01-25T02:57:44;4.00;99.90
21271;DHT22;10795;50.796;3.860;2023-01-25T03:00:12;3.90;99.90
21271;DHT22;10795;50.796;3.860;2023-01-25T03:02:37;3.70;99.90
21271;DHT22;10795;50.796;3.860;2023-01-25T03:05:04;3.30;99.90
21271;DHT22;10795;50.796;3.860;2023-01-25T03:07:30;2.90;99.90
21271;DHT22;10795;50.796;3.860;2023-01-25T03:09:57;2.50;99.90
21271;DHT22;10795;50.796;3.860;2023-01-25T03:12:23;2.00;99.90
21271;DHT22;10795;50.796;3.860;2023-01-25T03:14:50;2.90;99.90
21271;DHT22;10795;50.796;3.860;2023-01-25T03:17:17;3.50;99.90
21271;DHT22;10795;50.796;3.860;2023-01-25T03:19:44;3.90;99.90
21271;DHT22;10795;50.796;3.860;2023-01-25T03:22:10;3.80;99.90
21271;DHT22;10795;50.796;3.860;2023-01-25T03:24:36;4.00;99.90
21271;DHT22;10795;50.796;3.860;2023-01-25T03:27:02;4.30;99.90
21271;DHT22;10795;50.796;3.860;2023-01-25T03:30:02;4.00;99.90
21271;DHT22;10795;50.796;3.860;2023-01-25T03:32:31;3.90;99.90
21271;DHT22;10795;50.796;3.860;2023-01-25T03:35:03;4.10;99.90
21271;DHT22;10795;50.796;3.860;2023-01-25T03:37:29;4.20;99.90
21271;DHT22;10795;50.796;3.860;2023-01-25T03:39:57;4.00;99.90
21271;DHT22;10795;50.796;3.860;2023-01-25T03:42:23;4.00;99.90
21271;DHT22;10795;50.796;3.860;2023-01-25T03:44:54;3.90;99.90
21271;DHT22;10795;50.796;3.860;2023-01-25T03:47:20;4.00;99.90
21271;DHT22;10795;50.796;3.860;2023-01-25T03:49:46;4.00;99.90
21271;DHT22;10795;50.796;3.860;2023-01-25T03:52:16;3.50;99.90
21271;DHT22;10795;50.796;3.860;2023-01-25T03:54:42;2.90;99.90
21271;DHT22;10795;50.796;3.860;2023-01-25T03:57:09;2.50;99.90
21271;DHT22;10795;50.796;3.860;2023-01-25T03:59:46;2.10;99.90
21271;DHT22;10795;50.796;3.860;2023-01-25T04:02:12;3.40;99.90
21271;DHT22;10795;50.796;3.860;2023-01-25T04:04:39;3.90;99.90
21271;DHT22;10795;50.796;3.860;2023-01-25T04:07:07;3.50;99.90
21271;DHT22;10795;50.796;3.860;2023-01-25T04:09:35;3.50;99.90
21271;DHT22;10795;50.796;3.860;2023-01-25T04:12:01;3.50;99.90
21271;DHT22;10795;50.796;3.860;2023-01-25T04:14:30;2.70;99.90
21271;DHT22;10795;50.796;3.860;2023-01-25T04:17:00;2.30;99.90
21271;DHT22;10795;50.796;3.860;2023-01-25T04:19:37;2.00;99.90
21271;DHT22;10795;50.796;3.860;2023-01-25T04:22:05;2.10;99.90
21271;DHT22;10795;50.796;3.860;2023-01-25T04:24:34;2.00;99.90
21271;DHT22;10795;50.796;3.860;2023-01-25T04:27:01;2.70;99.90
21271;DHT22;10795;50.796;3.860;2023-01-25T04:29:29;2.70;99.90
21271;DHT22;10795;50.796;3.860;2023-01-25T04:31:57;2.80;99.90
21271;DHT22;10795;50.796;3.860;2023-01-25T04:34:23;2.70;99.90
21271;DHT22;10795;50.796;3.860;2023-01-25T04:36:49;2.90;99.90
21271;DHT22;10795;50.796;3.860;2023-01-25T04:39:15;3.00;99.90
21271;DHT22;10795;50.796;3.860;2023-01-25T04:41:41;2.80;99.90
21271;DHT22;10795;50.796;3.860;2023-01-25T04:44:07;2.60;99.90
21271;DHT22;10795;50.796;3.860;2023-01-25T04:46:36;3.00;99.90
21271;DHT22;10795;50.796;3.860;2023-01-25T04:49:02;3.10;99.90
21271;DHT22;10795;50.796;3.860;2023-01-25T04:51:28;2.90;99.90
21271;DHT22;10795;50.796;3.860;2023-01-25T04:53:54;3.70;99.90
21271;DHT22;10795;50.796;3.860;2023-01-25T04:56:20;3.40;99.90
21271;DHT22;10795;50.796;3.860;2023-01-25T04:58:51;3.80;99.90
21271;DHT22;10795;50.796;3.860;2023-01-25T05:01:17;3.90;99.90
21271;DHT22;10795;50.796;3.860;2023-01-25T05:03:42;3.70;99.90
21271;DHT22;10795;50.796;3.860;2023-01-25T05:06:18;4.00;99.90
21271;DHT22;10795;50.796;3.860;2023-01-25T05:08:44;2.90;99.90
21271;DHT22;10795;50.796;3.860;2023-01-25T05:11:12;2.40;99.90
21271;DHT22;10795;50.796;3.860;2023-01-25T05:13:45;2.70;99.90
21271;DHT22;10795;50.796;3.860;2023-01-25T05:16:17;2.60;99.90
21271;DHT22;10795;50.796;3.860;2023-01-25T05:18:43;2.10;99.90
21271;DHT22;10795;50.796;3.860;2023-01-25T05:21:11;2.20;99.90
21271;DHT22;10795;50.796;3.860;2023-01-25T05:23:57;2.40;99.90
21271;DHT22;10795;50.796;3.860;2023-01-25T05:26:23;2.10;99.90
21271;DHT22;10795;50.796;3.860;2023-01-25T05:29:08;1.70;99.90
21271;DHT22;10795;50.796;3.860;2023-01-25T05:31:48;1.50;99.90
21271;DHT22;10795;50.796;3.860;2023-01-25T05:34:14;1.50;99.90
21271;DHT22;10795;50.796;3.860;2023-01-25T05:36:40;1.60;99.90
21271;DHT22;10795;50.796;3.860;2023-01-25T05:39:07;1.90;99.90
21271;DHT22;10795;50.796;3.860;2023-01-25T05:41:34;2.70;99.90
21271;DHT22;10795;50.796;3.860;2023-01-25T05:44:01;3.10;99.90
21271;DHT22;10795;50.796;3.860;2023-01-25T05:46:28;2.60;99.90
21271;DHT22;10795;50.796;3.860;2023-01-25T05:48:55;2.10;99.90
21271;DHT22;10795;50.796;3.860;2023-01-25T05:51:23;1.50;99.90
21271;DHT22;10795;50.796;3.860;2023-01-25T05:53:49;1.10;99.90
21271;DHT22;10795;50.796;3.860;2023-01-25T05:56:17;1.00;99.90
21271;DHT22;10795;50.796;3.860;2023-01-25T05:58:42;1.00;99.90
21271;DHT22;10795;50.796;3.860;2023-01-25T06:01:08;1.30;99.90
21271;DHT22;10795;50.796;3.860;2023-01-25T06:03:46;1.60;99.90
21271;DHT22;10795;50.796;3.860;2023-01-25T06:06:13;1.70;99.90
21271;DHT22;10795;50.796;3.860;2023-01-25T06:08:39;1.60;99.90
21271;DHT22;10795;50.796;3.860;2023-01-25T06:11:23;1.60;99.90
21271;DHT22;10795;50.796;3.860;2023-01-25T06:13:51;1.70;99.90
21271;DHT22;10795;50.796;3.860;2023-01-25T06:16:19;1.50;99.90
21271;DHT22;10795;50.796;3.860;2023-01-25T06:18:58;1.30;99.90
21271;DHT22;10795;50.796;3.860;2023-01-25T06:21:59;1.50;99.90
21271;DHT22;10795;50.796;3.860;2023-01-25T06:24:24;1.50;99.90
21271;DHT22;10795;50.796;3.860;2023-01-25T06:26:50;1.50;99.90
21271;DHT22;10795;50.796;3.860;2023-01-25T06:29:16;1.40;99.90
21271;DHT22;10795;50.796;3.860;2023-01-25T06:31:42;1.50;99.90
21271;DHT22;10795;50.796;3.860;2023-01-25T06:34:08;1.50;99.90
21271;DHT22;10795;50.796;3.860;2023-01-25T06:36:35;1.40;99.90
21271;DHT22;10795;50.796;3.860;2023-01-25T06:39:01;1.70;99.90
21271;DHT22;10795;50.796;3.860;2023-01-25T06:41:27;1.60;99.90
21271;DHT22;10795;50.796;3.860;2023-01-25T06:43:53;1.70;99.90
21271;DHT22;10795;50.796;3.860;2023-01-25T06:46:20;1.50;99.90
21271;DHT22;10795;50.796;3.860;2023-01-25T06:48:46;1.50;99.90
21271;DHT22;10795;50.796;3.860;2023-01-25T06:51:13;1.50;99.90
21271;DHT22;10795;50.796;3.860;2023-01-25T06:53:41;1.20;99.90
21271;DHT22;10795;50.796;3.860;2023-01-25T06:56:15;1.20;99.90
21271;DHT22;10795;50.796;3.860;2023-01-25T06:58:42;1.20;99.90
21271;DHT22;10795;50.796;3.860;2023-01-25T07:01:14;1.50;99.90
21271;DHT22;10795;50.796;3.860;2023-01-25T07:03:41;1.20;99.90
21271;DHT22;10795;50.796;3.860;2023-01-25T07:06:09;0.90;99.90
21271;DHT22;10795;50.796;3.860;2023-01-25T07:08:36;1.20;99.90
21271;DHT22;10795;50.796;3.860;2023-01-25T07:11:05;1.30;99.90
21271;DHT22;10795;50.796;3.860;2023-01-25T07:13:32;1.60;99.90
21271;DHT22;10795;50.796;3.860;2023-01-25T07:16:06;1.60;99.90
21271;DHT22;10795;50.796;3.860;2023-01-25T07:18:33;1.70;99.90
21271;DHT22;10795;50.796;3.860;2023-01-25T07:23:32;2.90;99.90
21271;DHT22;10795;50.796;3.860;2023-01-25T07:25:59;2.90;99.90
21271;DHT22;10795;50.796;3.860;2023-01-25T07:28:30;3.00;99.90
21271;DHT22;10795;50.796;3.860;2023-01-25T07:31:03;2.50;99.90
21271;DHT22;10795;50.796;3.860;2023-01-25T07:33:30;2.70;99.90
21271;DHT22;10795;50.796;3.860;2023-01-25T07:36:01;2.30;99.90
21271;DHT22;10795;50.796;3.860;2023-01-25T07:38:27;2.10;99.90
21271;DHT22;10795;50.796;3.860;2023-01-25T07:40:53;2.60;99.90
21271;DHT22;10795;50.796;3.860;2023-01-25T07:43:19;2.90;99.90
21271;DHT22;10795;50.796;3.860;2023-01-25T07:45:51;2.70;99.90
21271;DHT22;10795;50.796;3.860;2023-01-25T07:48:18;2.30;99.90
21271;DHT22;10795;50.796;3.860;2023-01-25T07:50:44;2.30;99.90
21271;DHT22;10795;50.796;3.860;2023-01-25T07:53:15;2.70;99.90
21271;DHT22;10795;50.796;3.860;2023-01-25T07:55:41;3.10;99.90
21271;DHT22;10795;50.796;3.860;2023-01-25T07:58:09;3.10;99.90
21271;DHT22;10795;50.796;3.860;2023-01-25T08:00:35;2.70;99.90
21271;DHT22;10795;50.796;3.860;2023-01-25T08:03:01;2.60;99.90
21271;DHT22;10795;50.796;3.860;2023-01-25T08:05:27;2.20;99.90
21271;DHT22;10795;50.796;3.860;2023-01-25T08:07:53;1.80;99.90
21271;DHT22;10795;50.796;3.860;2023-01-25T08:10:19;2.20;99.90
21271;DHT22;10795;50.796;3.860;2023-01-25T08:12:45;2.40;99.90
21271;DHT22;10795;50.796;3.860;2023-01-25T08:15:12;3.40;99.90
21271;DHT22;10795;50.796;3.860;2023-01-25T08:17:38;2.50;99.90
21271;DHT22;10795;50.796;3.860;2023-01-25T08:20:05;2.70;99.90
21271;DHT22;10795;50.796;3.860;2023-01-25T08:22:32;2.70;99.90
21271;DHT22;10795;50.796;3.860;2023-01-25T08:24:58;2.30;99.90
21271;DHT22;10795;50.796;3.860;2023-01-25T08:27:27;2.20;99.90
21271;DHT22;10795;50.796;3.860;2023-01-25T08:29:53;2.60;99.90
21271;DHT22;10795;50.796;3.860;2023-01-25T08:32:19;3.50;99.90
21271;DHT22;10795;50.796;3.860;2023-01-25T08:34:45;3.80;99.90
21271;DHT22;10795;50.796;3.860;2023-01-25T08:37:11;3.30;99.90
21271;DHT22;10795;50.796;3.860;2023-01-25T08:39:37;3.80;99.90
21271;DHT22;10795;50.796;3.860;2023-01-25T08:42:03;3.80;99.90
21271;DHT22;10795;50.796;3.860;2023-01-25T08:44:30;3.70;99.90
21271;DHT22;10795;50.796;3.860;2023-01-25T08:46:55;3.20;99.90
21271;DHT22;10795;50.796;3.860;2023-01-25T08:49:21;3.00;99.90
21271;DHT22;10795;50.796;3.860;2023-01-25T08:51:47;2.60;99.90
21271;DHT22;10795;50.796;3.860;2023-01-25T08:54:15;2.30;99.90
21271;DHT22;10795;50.796;3.860;2023-01-25T08:56:41;2.20;99.90
21271;DHT22;10795;50.796;3.860;2023-01-25T08:59:10;2.30;99.90
21271;DHT22;10795;50.796;3.860;2023-01-25T09:01:36;2.80;99.90
21271;DHT22;10795;50.796;3.860;2023-01-25T09:04:02;3.10;99.90
21271;DHT22;10795;50.796;3.860;2023-01-25T09:06:28;2.70;99.90
21271;DHT22;10795;50.796;3.860;2023-01-25T09:08:54;2.50;99.90
21271;DHT22;10795;50.796;3.860;2023-01-25T09:11:21;3.10;99.90
21271;DHT22;10795;50.796;3.860;2023-01-25T09:13:47;3.80;99.90
21271;DHT22;10795;50.796;3.860;2023-01-25T09:16:16;3.50;99.90
21271;DHT22;10795;50.796;3.860;2023-01-25T09:18:51;3.10;99.90
21271;DHT22;10795;50.796;3.860;2023-01-25T09:21:18;3.10;99.90
21271;DHT22;10795;50.796;3.860;2023-01-25T09:23:46;3.10;99.90
21271;DHT22;10795;50.796;3.860;2023-01-25T09:26:13;2.40;99.90
21271;DHT22;10795;50.796;3.860;2023-01-25T09:28:41;2.10;99.90
21271;DHT22;10795;50.796;3.860;2023-01-25T09:31:08;2.30;99.90
21271;DHT22;10795;50.796;3.860;2023-01-25T09:33:55;2.00;99.90
21271;DHT22;10795;50.796;3.860;2023-01-25T09:36:22;2.40;99.90
21271;DHT22;10795;50.796;3.860;2023-01-25T09:38:48;3.20;99.90
21271;DHT22;10795;50.796;3.860;2023-01-25T09:54:36;3.80;99.90
21271;DHT22;10795;50.796;3.860;2023-01-25T09:57:02;2.70;99.90
21271;DHT22;10795;50.796;3.860;2023-01-25T09:59:29;2.20;99.90
21271;DHT22;10795;50.796;3.860;2023-01-25T10:04:44;2.70;99.90
21271;DHT22;10795;50.796;3.860;2023-01-25T10:07:21;3.10;99.90
21271;DHT22;10795;50.796;3.860;2023-01-25T10:10:27;3.00;99.90
21271;DHT22;10795;50.796;3.860;2023-01-25T10:12:54;2.30;99.90
21271;DHT22;10795;50.796;3.860;2023-01-25T10:15:22;1.90;99.90
21271;DHT22;10795;50.796;3.860;2023-01-25T10:18:01;1.50;99.90
21271;DHT22;10795;50.796;3.860;2023-01-25T10:21:00;1.70;99.90
21271;DHT22;10795;50.796;3.860;2023-01-25T10:26:34;2.00;99.90
21271;DHT22;10795;50.796;3.860;2023-01-25T10:29:22;2.00;99.90
21271;DHT22;10795;50.796;3.860;2023-01-25T10:31:52;2.10;99.90
21271;DHT22;10795;50.796;3.860;2023-01-25T10:34:26;2.10;99.90
21271;DHT22;10795;50.796;3.860;2023-01-25T10:36:56;2.00;99.90
21271;DHT22;10795;50.796;3.860;2023-01-25T10:39:24;2.00;99.90
21271;DHT22;10795;50.796;3.860;2023-01-25T10:41:59;2.40;99.90
21271;DHT22;10795;50.796;3.860;2023-01-25T10:44:26;2.40;99.90
21271;DHT22;10795;50.796;3.860;2023-01-25T10:49:35;2.40;99.90
21271;DHT22;10795;50.796;3.860;2023-01-25T10:52:17;2.20;99.90
21271;DHT22;10795;50.796;3.860;2023-01-25T10:54:44;1.70;99.90
21271;DHT22;10795;50.796;3.860;2023-01-25T10:57:16;2.00;99.90
21271;DHT22;10795;50.796;3.860;2023-01-25T10:59:49;1.80;99.90
21271;DHT22;10795;50.796;3.860;2023-01-25T11:05:33;3.00;99.90
21271;DHT22;10795;50.796;3.860;2023-01-25T11:08:22;3.30;99.90
21271;DHT22;10795;50.796;3.860;2023-01-25T11:10:49;2.60;99.90
21271;DHT22;10795;50.796;3.860;2023-01-25T11:15:46;2.20;99.90
21271;DHT22;10795;50.796;3.860;2023-01-25T11:18:22;2.60;99.90
21271;DHT22;10795;50.796;3.860;2023-01-25T11:23:33;2.00;99.90
21271;DHT22;10795;50.796;3.860;2023-01-25T11:26:17;2.90;99.90
21271;DHT22;10795;50.796;3.860;2023-01-25T11:28:47;3.20;99.90
21271;DHT22;10795;50.796;3.860;2023-01-25T11:31:20;2.60;99.90
21271;DHT22;10795;50.796;3.860;2023-01-25T11:33:46;2.20;99.90
21271;DHT22;10795;50.796;3.860;2023-01-25T11:36:30;2.00;99.90
21271;DHT22;10795;50.796;3.860;2023-01-25T11:53:23;1.30;99.90
21271;DHT22;10795;50.796;3.860;2023-01-25T11:55:56;1.30;99.90
21271;DHT22;10795;50.796;3.860;2023-01-25T12:07:10;1.60;99.90
21271;DHT22;10795;50.796;3.860;2023-01-25T12:21:17;1.00;99.90
21271;DHT22;10795;50.796;3.860;2023-01-25T12:27:23;0.70;99.90
21271;DHT22;10795;50.796;3.860;2023-01-25T12:30:03;1.00;99.90
21271;DHT22;10795;50.796;3.860;2023-01-25T12:32:46;2.50;99.90
21271;DHT22;10795;50.796;3.860;2023-01-25T12:37:54;1.60;99.90
21271;DHT22;10795;50.796;3.860;2023-01-25T12:44:12;0.30;99.90
21271;DHT22;10795;50.796;3.860;2023-01-25T12:46:27;0.60;99.90
21271;DHT22;10795;50.796;3.860;2023-01-25T12:49:00;1.30;99.90
21271;DHT22;10795;50.796;3.860;2023-01-25T12:51:33;1.50;99.90
21271;DHT22;10795;50.796;3.860;2023-01-25T12:54:05;1.10;99.90
21271;DHT22;10795;50.796;3.860;2023-01-25T12:56:52;0.60;99.90
21271;DHT22;10795;50.796;3.860;2023-01-25T13:02:17;0.80;99.90
21271;DHT22;10795;50.796;3.860;2023-01-25T13:07:30;1.00;99.90
21271;DHT22;10795;50.796;3.860;2023-01-25T13:10:21;1.70;99.90
21271;DHT22;10795;50.796;3.860;2023-01-25T13:13:01;1.60;99.90
21271;DHT22;10795;50.796;3.860;2023-01-25T13:15:40;1.50;99.90
21271;DHT22;10795;50.796;3.860;2023-01-25T13:20:56;1.80;99.90
21271;DHT22;10795;50.796;3.860;2023-01-25T13:23:34;1.30;99.90
21271;DHT22;10795;50.796;3.860;2023-01-25T13:28:58;0.80;99.90
21271;DHT22;10795;50.796;3.860;2023-01-25T13:37:26;1.30;99.90
21271;DHT22;10795;50.796;3.860;2023-01-25T13:40:32;1.30;99.90
21271;DHT22;10795;50.796;3.860;2023-01-25T13:45:37;0.10;99.90
21271;DHT22;10795;50.796;3.860;2023-01-25T13:48:20;0.10;99.90
21271;DHT22;10795;50.796;3.860;2023-01-25T13:51:06;0.30;99.90
21271;DHT22;10795;50.796;3.860;2023-01-25T13:53:33;0.80;99.90
21271;DHT22;10795;50.796;3.860;2023-01-25T13:56:01;0.90;99.90
21271;DHT22;10795;50.796;3.860;2023-01-25T14:00:59;1.00;99.90
21271;DHT22;10795;50.796;3.860;2023-01-25T14:03:41;1.00;99.90
21271;DHT22;10795;50.796;3.860;2023-01-25T14:06:31;0.80;99.90
21271;DHT22;10795;50.796;3.860;2023-01-25T14:09:02;1.10;99.90
21271;DHT22;10795;50.796;3.860;2023-01-25T14:11:34;1.10;99.90
21271;DHT22;10795;50.796;3.860;2023-01-25T14:14:27;1.20;99.90
21271;DHT22;10795;50.796;3.860;2023-01-25T14:19:28;0.50;99.90
21271;DHT22;10795;50.796;3.860;2023-01-25T14:22:26;0.60;99.90
21271;DHT22;10795;50.796;3.860;2023-01-25T14:25:14;1.30;99.90
21271;DHT22;10795;50.796;3.860;2023-01-25T14:27:44;1.00;99.90
21271;DHT22;10795;50.796;3.860;2023-01-25T14:30:30;0.70;99.90
21271;DHT22;10795;50.796;3.860;2023-01-25T14:33:01;0.70;99.90
21271;DHT22;10795;50.796;3.860;2023-01-25T14:35:40;0.50;99.90
21271;DHT22;10795;50.796;3.860;2023-01-25T14:38:26;0.70;99.90
21271;DHT22;10795;50.796;3.860;2023-01-25T14:43:32;1.00;99.90
21271;DHT22;10795;50.796;3.860;2023-01-25T14:46:00;1.10;99.90
21271;DHT22;10795;50.796;3.860;2023-01-25T14:48:37;1.10;99.90
21271;DHT22;10795;50.796;3.860;2023-01-25T14:51:29;1.00;99.90
21271;DHT22;10795;50.796;3.860;2023-01-25T14:54:11;1.40;99.90
21271;DHT22;10795;50.796;3.860;2023-01-25T14:56:44;1.10;99.90
21271;DHT22;10795;50.796;3.860;2023-01-25T14:59:33;1.00;99.90
21271;DHT22;10795;50.796;3.860;2023-01-25T15:02:03;1.30;99.90
21271;DHT22;10795;50.796;3.860;2023-01-25T15:04:36;2.10;99.90
21271;DHT22;10795;50.796;3.860;2023-01-25T15:07:02;2.10;99.90
21271;DHT22;10795;50.796;3.860;2023-01-25T15:12:22;1.50;99.90
21271;DHT22;10795;50.796;3.860;2023-01-25T15:14:51;1.30;99.90
21271;DHT22;10795;50.796;3.860;2023-01-25T15:17:44;1.10;99.90
21271;DHT22;10795;50.796;3.860;2023-01-25T15:20:38;0.90;99.90
21271;DHT22;10795;50.796;3.860;2023-01-25T15:23:23;0.60;99.90
21271;DHT22;10795;50.796;3.860;2023-01-25T15:25:53;0.30;99.90
21271;DHT22;10795;50.796;3.860;2023-01-25T15:28:20;0.20;99.90
21271;DHT22;10795;50.796;3.860;2023-01-25T15:30:46;0.30;99.90
21271;DHT22;10795;50.796;3.860;2023-01-25T15:33:23;0.30;99.90
21271;DHT22;10795;50.796;3.860;2023-01-25T15:35:51;0.20;99.90
21271;DHT22;10795;50.796;3.860;2023-01-25T15:38:17;0.50;99.90
21271;DHT22;10795;50.796;3.860;2023-01-25T15:40:44;0.40;99.90
21271;DHT22;10795;50.796;3.860;2023-01-25T15:43:11;0.40;99.90
21271;DHT22;10795;50.796;3.860;2023-01-25T15:45:39;0.20;99.90
21271;DHT22;10795;50.796;3.860;2023-01-25T15:48:08;0.20;99.90
21271;DHT22;10795;50.796;3.860;2023-01-25T15:50:35;0.10;99.90
21271;DHT22;10795;50.796;3.860;2023-01-25T15:53:01;0.30;99.90
21271;DHT22;10795;50.796;3.860;2023-01-25T15:55:27;1.00;99.90
21271;DHT22;10795;50.796;3.860;2023-01-25T15:57:52;1.30;99.90
21271;DHT22;10795;50.796;3.860;2023-01-25T16:00:19;1.00;99.90
21271;DHT22;10795;50.796;3.860;2023-01-25T16:02:48;0.70;99.90
21271;DHT22;10795;50.796;3.860;2023-01-25T16:05:16;1.30;99.90
21271;DHT22;10795;50.796;3.860;2023-01-25T16:07:43;1.60;99.90
21271;DHT22;10795;50.796;3.860;2023-01-25T16:10:20;1.30;99.90
21271;DHT22;10795;50.796;3.860;2023-01-25T16:12:47;1.30;99.90
21271;DHT22;10795;50.796;3.860;2023-01-25T16:15:13;1.00;99.90
21271;DHT22;10795;50.796;3.860;2023-01-25T16:17:39;0.70;99.90
21271;DHT22;10795;50.796;3.860;2023-01-25T16:20:05;1.00;99.90
21271;DHT22;10795;50.796;3.860;2023-01-25T16:22:31;1.30;99.90
21271;DHT22;10795;50.796;3.860;2023-01-25T16:24:57;1.20;99.90
21271;DHT22;10795;50.796;3.860;2023-01-25T16:27:25;0.90;99.90
21271;DHT22;10795;50.796;3.860;2023-01-25T16:30:00;0.90;99.90
21271;DHT22;10795;50.796;3.860;2023-01-25T16:32:27;1.70;99.90
21271;DHT22;10795;50.796;3.860;2023-01-25T16:34:52;2.00;99.90
21271;DHT22;10795;50.796;3.860;2023-01-25T16:37:18;1.60;99.90
21271;DHT22;10795;50.796;3.860;2023-01-25T16:39:44;1.00;99.90
21271;DHT22;10795;50.796;3.860;2023-01-25T16:42:10;0.70;99.90
21271;DHT22;10795;50.796;3.860;2023-01-25T16:44:37;0.80;99.90
21271;DHT22;10795;50.796;3.860;2023-01-25T16:47:03;0.50;99.90
21271;DHT22;10795;50.796;3.860;2023-01-25T16:49:29;0.60;99.90
21271;DHT22;10795;50.796;3.860;2023-01-25T16:51:56;0.50;99.90
21271;DHT22;10795;50.796;3.860;2023-01-25T16:54:24;0.60;99.90
21271;DHT22;10795;50.796;3.860;2023-01-25T16:56:52;0.80;99.90
21271;DHT22;10795;50.796;3.860;2023-01-25T16:59:19;0.60;99.90
21271;DHT22;10795;50.796;3.860;2023-01-25T17:01:46;0.90;99.90
21271;DHT22;10795;50.796;3.860;2023-01-25T17:04:13;0.90;99.90
21271;DHT22;10795;50.796;3.860;2023-01-25T17:06:45;0.90;99.90
21271;DHT22;10795;50.796;3.860;2023-01-25T17:09:14;0.60;99.90
21271;DHT22;10795;50.796;3.860;2023-01-25T17:11:40;0.60;99.90
21271;DHT22;10795;50.796;3.860;2023-01-25T17:14:10;0.50;99.90
21271;DHT22;10795;50.796;3.860;2023-01-25T17:16:37;0.80;99.90
21271;DHT22;10795;50.796;3.860;2023-01-25T17:19:06;0.90;99.90
21271;DHT22;10795;50.796;3.860;2023-01-25T17:21:33;0.20;99.90
21271;DHT22;10795;50.796;3.860;2023-01-25T17:24:00;0.10;99.90
21271;DHT22;10795;50.796;3.860;2023-01-25T17:26:27;0.40;99.90
21271;DHT22;10795;50.796;3.860;2023-01-25T17:28:55;0.80;99.90
21271;DHT22;10795;50.796;3.860;2023-01-25T17:31:26;0.60;99.90
21271;DHT22;10795;50.796;3.860;2023-01-25T17:33:54;0.30;99.90
21271;DHT22;10795;50.796;3.860;2023-01-25T17:36:20;0.00;99.90
21271;DHT22;10795;50.796;3.860;2023-01-25T17:38:46;0.00;99.90
21271;DHT22;10795;50.796;3.860;2023-01-25T17:41:14;0.10;99.90
21271;DHT22;10795;50.796;3.860;2023-01-25T17:43:40;0.20;99.90
21271;DHT22;10795;50.796;3.860;2023-01-25T17:46:24;0.30;99.90
21271;DHT22;10795;50.796;3.860;2023-01-25T17:48:54;0.20;99.90
21271;DHT22;10795;50.796;3.860;2023-01-25T17:51:24;0.40;99.90
21271;DHT22;10795;50.796;3.860;2023-01-25T17:53:53;0.20;99.90
21271;DHT22;10795;50.796;3.860;2023-01-25T17:56:19;0.20;99.90
21271;DHT22;10795;50.796;3.860;2023-01-25T17:58:45;0.30;99.90
21271;DHT22;10795;50.796;3.860;2023-01-25T18:01:22;0.40;99.90